Time;durP1;ratioP1;P1;durP2;ratioP2;P2;SDS_P1;SDS_P2;PMS_P1;PMS_P2;Temp;Humidity;BMP_temperature;BMP_pressure;BME280_temperature;BME280_humidity;BME280_pressure;Samples;Min_cycle;Max_cycle;Signal;HPM_P1;HPM_P2
2024/01/03 00:04:54;;;;;;;;;;;11.20;99.90;;;;;;6727728;88;20115;-76
2024/01/03 00:14:54;;;;;;;;;;;11.30;99.90;;;;;;6727910;88;20074;-76
2024/01/03 00:24:55;;;;;;;;;;;11.30;99.90;;;;;;6724097;88;20112;-76
2024/01/03 00:34:56;;;;;;;;;;;11.20;99.90;;;;;;6725359;88;20754;-76
2024/01/03 00:44:57;;;;;;;;;;;11.20;99.90;;;;;;6723580;88;20072;-76
2024/01/03 00:54:57;;;;;;;;;;;11.00;99.90;;;;;;6727781;88;20062;-76
2024/01/03 01:04:58;;;;;;;;;;;10.80;99.90;;;;;;6727955;88;20054;-76
2024/01/03 01:15:01;;;;;;;;;;;10.60;99.90;;;;;;6722787;88;20112;-75
2024/01/03 01:25:01;;;;;;;;;;;10.40;99.90;;;;;;6724365;88;20237;-76
2024/01/03 01:35:02;;;;;;;;;;;10.40;99.90;;;;;;6727619;88;20516;-76
2024/01/03 01:45:03;;;;;;;;;;;10.40;99.90;;;;;;6733807;88;20080;-77
2024/01/03 01:55:03;;;;;;;;;;;10.20;99.90;;;;;;6724816;88;20550;-76
2024/01/03 02:05:04;;;;;;;;;;;10.00;99.90;;;;;;6726831;88;20100;-74
2024/01/03 02:15:05;;;;;;;;;;;9.80;99.90;;;;;;6724426;88;20086;-74
2024/01/03 02:25:10;;;;;;;;;;;9.90;99.90;;;;;;6734547;88;20070;-74
2024/01/03 02:35:11;;;;;;;;;;;9.80;99.90;;;;;;6735398;88;20070;-75
2024/01/03 02:45:11;;;;;;;;;;;9.90;99.90;;;;;;6726416;88;20494;-74
2024/01/03 02:55:11;;;;;;;;;;;10.00;99.90;;;;;;6727488;88;20061;-74
2024/01/03 03:05:12;;;;;;;;;;;9.90;99.90;;;;;;6727198;88;20502;-74
2024/01/03 03:15:12;;;;;;;;;;;9.80;99.90;;;;;;6726461;88;20860;-75
2024/01/03 03:25:13;;;;;;;;;;;9.60;99.90;;;;;;6728415;88;20070;-75
2024/01/03 03:35:14;;;;;;;;;;;9.40;99.90;;;;;;6728125;87;20193;-74
2024/01/03 03:45:14;;;;;;;;;;;9.40;99.90;;;;;;6724636;88;20042;-74
2024/01/03 03:55:15;;;;;;;;;;;9.50;99.90;;;;;;6727869;88;20061;-73
2024/01/03 04:05:15;;;;;;;;;;;9.70;99.90;;;;;;6730734;88;20070;-76
2024/01/03 04:15:16;;;;;;;;;;;9.70;99.90;;;;;;6727848;88;20196;-76
2024/01/03 04:25:17;;;;;;;;;;;9.70;99.90;;;;;;6725549;88;20062;-75
2024/01/03 04:35:17;;;;;;;;;;;9.70;99.90;;;;;;6728286;88;20063;-75
2024/01/03 04:45:17;;;;;;;;;;;9.90;99.90;;;;;;6719865;88;20174;-75
2024/01/03 04:55:18;;;;;;;;;;;10.00;99.90;;;;;;6724162;88;20250;-75
2024/01/03 05:05:18;;;;;;;;;;;10.00;99.90;;;;;;6727104;88;20083;-74
2024/01/03 05:15:19;;;;;;;;;;;10.00;99.90;;;;;;6723750;88;20499;-75
2024/01/03 05:25:19;;;;;;;;;;;9.90;99.90;;;;;;6726343;88;20126;-75
2024/01/03 05:35:20;;;;;;;;;;;9.70;99.90;;;;;;6724996;88;20636;-74
2024/01/03 05:45:20;;;;;;;;;;;9.60;99.90;;;;;;6722673;88;20061;-75
2024/01/03 05:55:20;;;;;;;;;;;9.80;99.90;;;;;;6730588;88;20440;-75
2024/01/03 06:05:21;;;;;;;;;;;9.90;99.90;;;;;;6738721;88;20173;-75
2024/01/03 06:15:21;;;;;;;;;;;10.10;99.90;;;;;;6746247;88;20130;-76
2024/01/03 06:25:22;;;;;;;;;;;10.40;99.90;;;;;;6731306;88;20059;-75
2024/01/03 06:35:22;;;;;;;;;;;10.20;99.90;;;;;;6734848;88;20066;-75
2024/01/03 06:45:23;;;;;;;;;;;10.20;99.90;;;;;;6734936;88;20134;-75
2024/01/03 06:55:23;;;;;;;;;;;10.20;99.90;;;;;;6733544;88;20158;-74
2024/01/03 07:05:23;;;;;;;;;;;10.30;99.90;;;;;;6733305;88;20659;-74
2024/01/03 07:15:27;;;;;;;;;;;10.30;99.90;;;;;;6724660;88;20051;-75
2024/01/03 07:25:27;;;;;;;;;;;10.20;99.90;;;;;;6726344;88;20482;-74
2024/01/03 07:35:28;;;;;;;;;;;10.30;99.90;;;;;;6730952;88;20099;-74
2024/01/03 07:45:28;;;;;;;;;;;10.20;99.90;;;;;;6724394;88;20548;-75
2024/01/03 07:55:29;;;;;;;;;;;10.30;99.90;;;;;;6730033;88;20083;-75
2024/01/03 08:05:30;;;;;;;;;;;10.20;99.90;;;;;;6726486;88;20146;-75
2024/01/03 08:15:31;;;;;;;;;;;10.30;99.90;;;;;;6724705;88;20070;-75
2024/01/03 08:25:31;;;;;;;;;;;10.20;99.90;;;;;;6725371;88;20067;-75
2024/01/03 08:35:31;;;;;;;;;;;10.00;99.90;;;;;;6727852;88;20641;-75
2024/01/03 08:45:33;;;;;;;;;;;10.00;99.90;;;;;;6725911;88;20072;-75
2024/01/03 08:55:33;;;;;;;;;;;10.10;99.90;;;;;;6724986;88;20067;-75
2024/01/03 09:05:34;;;;;;;;;;;10.40;99.90;;;;;;6726733;88;20279;-75
2024/01/03 09:15:34;;;;;;;;;;;10.70;99.90;;;;;;6726810;88;20075;-74
2024/01/03 09:25:34;;;;;;;;;;;11.40;99.90;;;;;;6725900;88;20467;-75
2024/01/03 09:35:35;;;;;;;;;;;11.70;99.90;;;;;;6751022;77;20198;-78
2024/01/03 09:45:36;;;;;;;;;;;12.20;99.90;;;;;;6773829;87;20096;-77
2024/01/03 09:55:37;;;;;;;;;;;12.20;99.90;;;;;;6779828;87;20044;-77
2024/01/03 10:05:37;;;;;;;;;;;12.40;99.90;;;;;;6784610;87;20078;-77
2024/01/03 10:15:38;;;;;;;;;;;12.70;99.90;;;;;;6787637;87;20056;-76
2024/01/03 10:25:39;;;;;;;;;;;13.10;99.90;;;;;;6784399;87;20192;-77
2024/01/03 10:35:43;;;;;;;;;;;13.50;99.90;;;;;;6782996;87;20059;-76
2024/01/03 10:45:44;;;;;;;;;;;13.40;99.90;;;;;;6783973;87;20499;-77
2024/01/03 10:55:44;;;;;;;;;;;13.70;99.90;;;;;;6786007;87;20077;-77
2024/01/03 11:05:51;;;;;;;;;;;12.90;99.90;;;;;;6784591;87;20052;-78
2024/01/03 11:15:52;;;;;;;;;;;12.90;99.90;;;;;;6782764;87;20060;-78
2024/01/03 11:25:53;;;;;;;;;;;13.00;99.90;;;;;;6775174;87;20189;-77
2024/01/03 11:35:53;;;;;;;;;;;12.80;99.90;;;;;;6779406;87;20195;-78
2024/01/03 11:46:08;;;;;;;;;;;13.50;99.90;;;;;;6781441;87;20100;-76
2024/01/03 11:56:09;;;;;;;;;;;13.00;99.90;;;;;;6781123;87;20048;-76
2024/01/03 12:06:09;;;;;;;;;;;12.40;99.90;;;;;;6782458;87;20127;-75
2024/01/03 12:16:10;;;;;;;;;;;13.50;99.90;;;;;;6784105;87;20092;-76
2024/01/03 12:26:10;;;;;;;;;;;14.20;99.90;;;;;;6781786;87;20116;-76
2024/01/03 12:36:11;;;;;;;;;;;13.70;99.90;;;;;;6783789;87;20228;-77
2024/01/03 12:46:12;;;;;;;;;;;13.30;99.90;;;;;;6787922;87;20532;-76
2024/01/03 12:56:12;;;;;;;;;;;13.20;99.90;;;;;;6784360;87;20073;-79
2024/01/03 13:06:13;;;;;;;;;;;13.00;99.90;;;;;;6781099;87;20067;-78
2024/01/03 13:16:13;;;;;;;;;;;13.70;99.90;;;;;;6781932;87;20059;-75
2024/01/03 13:26:13;;;;;;;;;;;13.00;99.90;;;;;;6783839;87;20223;-76
2024/01/03 13:36:14;;;;;;;;;;;12.70;99.90;;;;;;6781126;87;20086;-75
2024/01/03 13:46:15;;;;;;;;;;;11.40;99.90;;;;;;6784996;87;20056;-77
2024/01/03 13:56:23;;;;;;;;;;;10.60;99.90;;;;;;6781085;87;20063;-77
2024/01/03 14:06:23;;;;;;;;;;;10.50;99.90;;;;;;6788602;87;20044;-77
2024/01/03 14:16:25;;;;;;;;;;;10.10;99.90;;;;;;6782785;87;20060;-78
2024/01/03 14:26:25;;;;;;;;;;;9.90;99.90;;;;;;6782099;87;20055;-79
2024/01/03 14:36:25;;;;;;;;;;;9.80;99.90;;;;;;6786826;87;20222;-79
2024/01/03 14:46:26;;;;;;;;;;;9.70;99.90;;;;;;6785241;87;20052;-78
2024/01/03 14:56:27;;;;;;;;;;;9.70;99.90;;;;;;6783367;87;20059;-77
2024/01/03 15:06:27;;;;;;;;;;;9.60;99.90;;;;;;6784423;87;20312;-77
2024/01/03 15:16:28;;;;;;;;;;;9.80;99.90;;;;;;6782770;87;20135;-77
2024/01/03 15:26:28;;;;;;;;;;;9.70;99.90;;;;;;6780248;87;20593;-76
2024/01/03 15:46:34;;;;;;;;;;;10.00;99.90;;;;;;6738307;88;20088;-78
2024/01/03 15:56:34;;;;;;;;;;;10.10;99.90;;;;;;6725193;88;20178;-79
2024/01/03 16:06:36;;;;;;;;;;;9.90;99.90;;;;;;6734541;88;20051;-79
2024/01/03 16:16:37;;;;;;;;;;;10.00;99.90;;;;;;6724139;88;20105;-77
2024/01/03 16:26:38;;;;;;;;;;;9.80;99.90;;;;;;6731282;88;20076;-78
2024/01/03 16:36:39;;;;;;;;;;;9.70;99.90;;;;;;6729190;88;20080;-79
2024/01/03 16:46:39;;;;;;;;;;;9.90;99.90;;;;;;6725547;88;20120;-78
2024/01/03 16:56:42;;;;;;;;;;;9.90;99.90;;;;;;6717149;88;20174;-79
2024/01/03 17:06:43;;;;;;;;;;;9.70;99.90;;;;;;6719638;88;20125;-79
2024/01/03 17:16:45;;;;;;;;;;;9.60;99.90;;;;;;6735745;88;20044;-79
2024/01/03 17:26:46;;;;;;;;;;;9.50;99.90;;;;;;6723042;88;20051;-78
2024/01/03 17:36:48;;;;;;;;;;;9.50;99.90;;;;;;6719773;88;20070;-78
2024/01/03 17:46:48;;;;;;;;;;;9.60;99.90;;;;;;6724331;88;20084;-79
2024/01/03 17:56:49;;;;;;;;;;;9.50;99.90;;;;;;6722452;88;20062;-78
2024/01/03 18:06:50;;;;;;;;;;;9.40;99.90;;;;;;6719041;88;20137;-78
2024/01/03 18:16:50;;;;;;;;;;;9.50;99.90;;;;;;6727182;88;20100;-77
2024/01/03 18:26:50;;;;;;;;;;;9.60;99.90;;;;;;6725262;88;20096;-78
2024/01/03 18:36:51;;;;;;;;;;;10.00;99.90;;;;;;6720381;88;20072;-78
2024/01/03 18:46:51;;;;;;;;;;;9.90;99.90;;;;;;6720677;88;20088;-79
2024/01/03 18:56:52;;;;;;;;;;;10.00;99.90;;;;;;6668676;88;20055;-78
2024/01/03 19:06:52;;;;;;;;;;;10.10;99.90;;;;;;6722561;88;20087;-79
2024/01/03 19:16:52;;;;;;;;;;;10.00;99.90;;;;;;6731035;88;20159;-78
2024/01/03 19:26:53;;;;;;;;;;;10.10;99.90;;;;;;6708052;88;20107;-78
2024/01/03 19:36:53;;;;;;;;;;;10.20;99.90;;;;;;6710491;88;20178;-80
2024/01/03 19:46:54;;;;;;;;;;;10.10;99.90;;;;;;6736729;88;20066;-78
2024/01/03 19:56:54;;;;;;;;;;;10.10;99.90;;;;;;6739780;88;20070;-82
2024/01/03 20:06:55;;;;;;;;;;;10.10;99.90;;;;;;6740649;88;20690;-79
2024/01/03 20:16:55;;;;;;;;;;;10.10;99.90;;;;;;6715889;88;20126;-78
2024/01/03 20:26:57;;;;;;;;;;;10.00;99.90;;;;;;6722246;88;20134;-80
2024/01/03 20:36:57;;;;;;;;;;;10.10;99.90;;;;;;6730919;88;20476;-77
2024/01/03 20:46:58;;;;;;;;;;;10.10;99.90;;;;;;6729862;88;20164;-78
2024/01/03 20:56:58;;;;;;;;;;;10.10;99.90;;;;;;6677790;88;20113;-77
2024/01/03 21:06:59;;;;;;;;;;;9.70;99.90;;;;;;6738525;88;20204;-77
2024/01/03 21:16:59;;;;;;;;;;;9.30;99.90;;;;;;6740815;88;20166;-77
2024/01/03 21:27:00;;;;;;;;;;;9.10;99.90;;;;;;6739023;88;20481;-77
2024/01/03 21:37:00;;;;;;;;;;;9.10;99.90;;;;;;6734041;88;20084;-77
2024/01/03 21:47:01;;;;;;;;;;;9.10;99.90;;;;;;6718018;88;20066;-78
2024/01/03 21:57:01;;;;;;;;;;;9.10;99.90;;;;;;6737825;88;20201;-78
2024/01/03 22:07:02;;;;;;;;;;;9.10;99.90;;;;;;6738157;88;20091;-77
2024/01/03 22:17:02;;;;;;;;;;;9.40;99.90;;;;;;6738328;88;20062;-77
2024/01/03 22:27:03;;;;;;;;;;;9.50;99.90;;;;;;6735961;88;20112;-77
2024/01/03 22:37:03;;;;;;;;;;;9.50;99.90;;;;;;6742355;88;20208;-77
2024/01/03 22:47:06;;;;;;;;;;;9.40;99.90;;;;;;6739926;88;20062;-77
2024/01/03 22:57:06;;;;;;;;;;;9.50;99.90;;;;;;6739920;88;20054;-78
2024/01/03 23:07:07;;;;;;;;;;;9.40;99.90;;;;;;6742951;88;20120;-78
2024/01/03 23:17:08;;;;;;;;;;;9.30;99.90;;;;;;6739044;88;20160;-78
2024/01/03 23:27:08;;;;;;;;;;;9.20;99.90;;;;;;6738210;88;20046;-78
2024/01/03 23:37:09;;;;;;;;;;;9.10;99.90;;;;;;6741075;88;20142;-78
2024/01/03 23:47:09;;;;;;;;;;;9.00;99.90;;;;;;6738088;88;20231;-78
2024/01/03 23:57:09;;;;;;;;;;;8.50;99.90;;;;;;6740095;88;20084;-78
